sensor_id;sensor_type;location;lat;lon;timestamp;P1;durP1;ratioP1;P2;durP2;ratioP2
20906;SDS011;10613;50.966;5.814;2024-02-28T00:02:53;12.75;;;12.75;;
20906;SDS011;10613;50.966;5.814;2024-02-28T00:07:06;11.25;;;9.75;;
20906;SDS011;10613;50.966;5.814;2024-02-28T00:11:20;13.50;;;13.50;;
20906;SDS011;10613;50.966;5.814;2024-02-28T00:15:27;14.75;;;12.00;;
20906;SDS011;10613;50.966;5.814;2024-02-28T00:19:34;11.25;;;11.25;;
20906;SDS011;10613;50.966;5.814;2024-02-28T00:23:41;15.00;;;12.50;;
20906;SDS011;10613;50.966;5.814;2024-02-28T00:27:48;12.00;;;12.00;;
20906;SDS011;10613;50.966;5.814;2024-02-28T00:31:55;9.50;;;9.00;;
20906;SDS011;10613;50.966;5.814;2024-02-28T00:36:02;15.00;;;13.00;;
20906;SDS011;10613;50.966;5.814;2024-02-28T00:40:16;16.50;;;11.50;;
20906;SDS011;10613;50.966;5.814;2024-02-28T00:44:23;12.00;;;12.00;;
20906;SDS011;10613;50.966;5.814;2024-02-28T00:48:30;15.00;;;12.00;;
20906;SDS011;10613;50.966;5.814;2024-02-28T00:52:37;15.00;;;14.00;;
20906;SDS011;10613;50.966;5.814;2024-02-28T00:56:44;10.00;;;10.00;;
20906;SDS011;10613;50.966;5.814;2024-02-28T01:00:51;15.00;;;13.25;;
20906;SDS011;10613;50.966;5.814;2024-02-28T01:04:58;13.75;;;13.75;;
20906;SDS011;10613;50.966;5.814;2024-02-28T01:09:05;14.75;;;11.75;;
20906;SDS011;10613;50.966;5.814;2024-02-28T01:13:12;8.75;;;8.00;;
20906;SDS011;10613;50.966;5.814;2024-02-28T01:17:19;11.50;;;11.50;;
20906;SDS011;10613;50.966;5.814;2024-02-28T01:21:26;11.25;;;9.75;;
20906;SDS011;10613;50.966;5.814;2024-02-28T01:25:40;12.50;;;11.00;;
20906;SDS011;10613;50.966;5.814;2024-02-28T01:29:47;13.50;;;9.75;;
20906;SDS011;10613;50.966;5.814;2024-02-28T01:33:54;13.50;;;13.50;;
20906;SDS011;10613;50.966;5.814;2024-02-28T01:38:02;12.00;;;10.50;;
20906;SDS011;10613;50.966;5.814;2024-02-28T01:42:09;12.75;;;12.00;;
20906;SDS011;10613;50.966;5.814;2024-02-28T01:46:20;12.00;;;12.00;;
20906;SDS011;10613;50.966;5.814;2024-02-28T01:50:28;14.25;;;9.75;;
20906;SDS011;10613;50.966;5.814;2024-02-28T01:54:35;11.00;;;11.00;;
20906;SDS011;10613;50.966;5.814;2024-02-28T01:58:43;14.25;;;13.00;;
20906;SDS011;10613;50.966;5.814;2024-02-28T02:02:51;13.25;;;12.00;;
20906;SDS011;10613;50.966;5.814;2024-02-28T02:06:58;14.75;;;14.75;;
20906;SDS011;10613;50.966;5.814;2024-02-28T02:11:07;9.75;;;9.50;;
20906;SDS011;10613;50.966;5.814;2024-02-28T02:15:14;11.75;;;11.75;;
20906;SDS011;10613;50.966;5.814;2024-02-28T02:19:21;12.75;;;12.75;;
20906;SDS011;10613;50.966;5.814;2024-02-28T02:23:29;20.25;;;15.50;;
20906;SDS011;10613;50.966;5.814;2024-02-28T02:27:35;13.00;;;11.50;;
20906;SDS011;10613;50.966;5.814;2024-02-28T02:31:42;10.75;;;10.00;;
20906;SDS011;10613;50.966;5.814;2024-02-28T02:35:50;10.25;;;10.00;;
20906;SDS011;10613;50.966;5.814;2024-02-28T02:39:56;12.00;;;12.00;;
20906;SDS011;10613;50.966;5.814;2024-02-28T02:44:04;15.50;;;15.50;;
20906;SDS011;10613;50.966;5.814;2024-02-28T02:48:11;14.75;;;14.75;;
20906;SDS011;10613;50.966;5.814;2024-02-28T02:52:17;13.25;;;13.25;;
20906;SDS011;10613;50.966;5.814;2024-02-28T02:56:24;15.00;;;12.25;;
20906;SDS011;10613;50.966;5.814;2024-02-28T03:00:31;9.50;;;9.50;;
20906;SDS011;10613;50.966;5.814;2024-02-28T03:04:38;13.50;;;13.50;;
20906;SDS011;10613;50.966;5.814;2024-02-28T03:08:46;13.50;;;11.50;;
20906;SDS011;10613;50.966;5.814;2024-02-28T03:12:52;11.50;;;11.50;;
20906;SDS011;10613;50.966;5.814;2024-02-28T03:17:00;16.00;;;14.00;;
20906;SDS011;10613;50.966;5.814;2024-02-28T03:21:07;16.50;;;13.50;;
20906;SDS011;10613;50.966;5.814;2024-02-28T03:25:14;16.50;;;13.00;;
20906;SDS011;10613;50.966;5.814;2024-02-28T03:29:21;10.00;;;9.25;;
20906;SDS011;10613;50.966;5.814;2024-02-28T03:33:27;13.00;;;10.75;;
20906;SDS011;10613;50.966;5.814;2024-02-28T03:37:36;18.00;;;14.50;;
20906;SDS011;10613;50.966;5.814;2024-02-28T03:41:43;12.00;;;10.75;;
20906;SDS011;10613;50.966;5.814;2024-02-28T03:45:50;10.00;;;10.00;;
20906;SDS011;10613;50.966;5.814;2024-02-28T03:49:57;13.00;;;10.00;;
20906;SDS011;10613;50.966;5.814;2024-02-28T03:54:04;10.00;;;10.00;;
20906;SDS011;10613;50.966;5.814;2024-02-28T03:58:11;15.25;;;12.75;;
20906;SDS011;10613;50.966;5.814;2024-02-28T04:02:18;15.00;;;13.00;;
20906;SDS011;10613;50.966;5.814;2024-02-28T04:06:25;15.50;;;15.00;;
20906;SDS011;10613;50.966;5.814;2024-02-28T04:10:32;17.00;;;14.75;;
20906;SDS011;10613;50.966;5.814;2024-02-28T04:14:39;11.75;;;11.75;;
20906;SDS011;10613;50.966;5.814;2024-02-28T04:18:46;15.50;;;12.50;;
20906;SDS011;10613;50.966;5.814;2024-02-28T04:22:53;12.00;;;11.75;;
20906;SDS011;10613;50.966;5.814;2024-02-28T04:27:00;14.00;;;11.00;;
20906;SDS011;10613;50.966;5.814;2024-02-28T04:31:07;12.25;;;10.75;;
20906;SDS011;10613;50.966;5.814;2024-02-28T04:35:14;9.25;;;8.50;;
20906;SDS011;10613;50.966;5.814;2024-02-28T04:39:25;12.00;;;11.00;;
20906;SDS011;10613;50.966;5.814;2024-02-28T04:43:32;13.50;;;13.50;;
20906;SDS011;10613;50.966;5.814;2024-02-28T04:47:39;11.50;;;9.75;;
20906;SDS011;10613;50.966;5.814;2024-02-28T04:51:46;14.75;;;12.00;;
20906;SDS011;10613;50.966;5.814;2024-02-28T04:55:53;10.00;;;10.00;;
20906;SDS011;10613;50.966;5.814;2024-02-28T05:00:00;15.50;;;14.00;;
20906;SDS011;10613;50.966;5.814;2024-02-28T05:04:07;13.50;;;13.50;;
20906;SDS011;10613;50.966;5.814;2024-02-28T05:08:14;9.25;;;9.00;;
20906;SDS011;10613;50.966;5.814;2024-02-28T05:12:21;10.75;;;10.75;;
20906;SDS011;10613;50.966;5.814;2024-02-28T05:16:28;17.00;;;14.75;;
20906;SDS011;10613;50.966;5.814;2024-02-28T05:20:35;9.50;;;9.25;;
20906;SDS011;10613;50.966;5.814;2024-02-28T05:24:42;11.00;;;11.00;;
20906;SDS011;10613;50.966;5.814;2024-02-28T05:28:50;14.25;;;14.25;;
20906;SDS011;10613;50.966;5.814;2024-02-28T05:32:57;9.75;;;9.75;;
20906;SDS011;10613;50.966;5.814;2024-02-28T05:37:04;11.75;;;11.50;;
20906;SDS011;10613;50.966;5.814;2024-02-28T05:41:11;12.75;;;9.75;;
20906;SDS011;10613;50.966;5.814;2024-02-28T05:45:18;10.50;;;10.50;;
20906;SDS011;10613;50.966;5.814;2024-02-28T05:49:25;12.50;;;10.50;;
20906;SDS011;10613;50.966;5.814;2024-02-28T05:53:32;12.25;;;10.00;;
20906;SDS011;10613;50.966;5.814;2024-02-28T05:57:42;10.00;;;10.00;;
20906;SDS011;10613;50.966;5.814;2024-02-28T06:01:49;9.50;;;9.50;;
20906;SDS011;10613;50.966;5.814;2024-02-28T06:05:56;11.50;;;9.75;;
20906;SDS011;10613;50.966;5.814;2024-02-28T06:10:11;13.00;;;11.25;;
20906;SDS011;10613;50.966;5.814;2024-02-28T06:14:25;10.25;;;9.00;;
20906;SDS011;10613;50.966;5.814;2024-02-28T06:18:32;11.00;;;11.00;;
20906;SDS011;10613;50.966;5.814;2024-02-28T06:22:40;10.25;;;10.25;;
20906;SDS011;10613;50.966;5.814;2024-02-28T06:26:47;9.25;;;9.25;;
20906;SDS011;10613;50.966;5.814;2024-02-28T06:30:54;9.00;;;7.00;;
20906;SDS011;10613;50.966;5.814;2024-02-28T06:35:01;7.50;;;7.50;;
20906;SDS011;10613;50.966;5.814;2024-02-28T06:39:08;11.00;;;9.00;;
20906;SDS011;10613;50.966;5.814;2024-02-28T06:43:15;12.00;;;12.00;;
20906;SDS011;10613;50.966;5.814;2024-02-28T06:47:22;14.00;;;11.00;;
20906;SDS011;10613;50.966;5.814;2024-02-28T06:51:36;11.25;;;9.00;;
20906;SDS011;10613;50.966;5.814;2024-02-28T06:55:43;9.75;;;9.00;;
20906;SDS011;10613;50.966;5.814;2024-02-28T06:59:52;11.25;;;9.00;;
20906;SDS011;10613;50.966;5.814;2024-02-28T07:03:59;14.25;;;10.75;;
20906;SDS011;10613;50.966;5.814;2024-02-28T07:08:06;9.00;;;9.00;;
20906;SDS011;10613;50.966;5.814;2024-02-28T07:12:13;12.00;;;11.75;;
20906;SDS011;10613;50.966;5.814;2024-02-28T07:16:27;16.00;;;11.00;;
20906;SDS011;10613;50.966;5.814;2024-02-28T07:20:35;14.25;;;11.50;;
20906;SDS011;10613;50.966;5.814;2024-02-28T07:24:49;12.00;;;12.00;;
20906;SDS011;10613;50.966;5.814;2024-02-28T07:28:56;11.50;;;11.50;;
20906;SDS011;10613;50.966;5.814;2024-02-28T07:33:04;11.00;;;9.00;;
20906;SDS011;10613;50.966;5.814;2024-02-28T07:37:11;9.00;;;7.50;;
20906;SDS011;10613;50.966;5.814;2024-02-28T07:41:19;12.00;;;9.00;;
20906;SDS011;10613;50.966;5.814;2024-02-28T07:45:26;13.75;;;12.00;;
20906;SDS011;10613;50.966;5.814;2024-02-28T07:49:33;12.00;;;12.00;;
20906;SDS011;10613;50.966;5.814;2024-02-28T07:53:40;7.50;;;7.50;;
20906;SDS011;10613;50.966;5.814;2024-02-28T07:57:47;10.00;;;9.75;;
20906;SDS011;10613;50.966;5.814;2024-02-28T08:01:54;9.00;;;9.00;;
20906;SDS011;10613;50.966;5.814;2024-02-28T08:06:01;11.00;;;8.00;;
20906;SDS011;10613;50.966;5.814;2024-02-28T08:10:08;12.50;;;10.25;;
20906;SDS011;10613;50.966;5.814;2024-02-28T08:14:16;11.50;;;9.50;;
20906;SDS011;10613;50.966;5.814;2024-02-28T08:18:23;9.75;;;9.75;;
20906;SDS011;10613;50.966;5.814;2024-02-28T08:22:30;10.50;;;10.00;;
20906;SDS011;10613;50.966;5.814;2024-02-28T08:26:37;8.00;;;8.00;;
20906;SDS011;10613;50.966;5.814;2024-02-28T08:30:45;7.00;;;7.00;;
20906;SDS011;10613;50.966;5.814;2024-02-28T08:34:52;8.50;;;8.50;;
20906;SDS011;10613;50.966;5.814;2024-02-28T08:39:01;9.00;;;6.75;;
20906;SDS011;10613;50.966;5.814;2024-02-28T08:43:11;10.50;;;10.50;;
20906;SDS011;10613;50.966;5.814;2024-02-28T08:47:18;7.00;;;7.00;;
20906;SDS011;10613;50.966;5.814;2024-02-28T08:51:26;9.75;;;8.25;;
20906;SDS011;10613;50.966;5.814;2024-02-28T08:55:33;8.50;;;8.50;;
20906;SDS011;10613;50.966;5.814;2024-02-28T08:59:40;7.00;;;7.00;;
20906;SDS011;10613;50.966;5.814;2024-02-28T09:03:47;6.00;;;6.00;;
20906;SDS011;10613;50.966;5.814;2024-02-28T09:07:54;9.00;;;9.00;;
20906;SDS011;10613;50.966;5.814;2024-02-28T09:12:01;7.75;;;7.75;;
20906;SDS011;10613;50.966;5.814;2024-02-28T09:16:10;8.50;;;8.50;;
20906;SDS011;10613;50.966;5.814;2024-02-28T09:20:17;7.00;;;7.00;;
20906;SDS011;10613;50.966;5.814;2024-02-28T09:24:24;6.00;;;5.50;;
20906;SDS011;10613;50.966;5.814;2024-02-28T09:28:31;13.50;;;9.25;;
20906;SDS011;10613;50.966;5.814;2024-02-28T09:32:38;9.50;;;7.00;;
20906;SDS011;10613;50.966;5.814;2024-02-28T09:36:45;9.50;;;8.00;;
20906;SDS011;10613;50.966;5.814;2024-02-28T09:40:58;12.00;;;9.25;;
20906;SDS011;10613;50.966;5.814;2024-02-28T09:45:08;8.00;;;7.00;;
20906;SDS011;10613;50.966;5.814;2024-02-28T09:49:18;7.75;;;7.50;;
20906;SDS011;10613;50.966;5.814;2024-02-28T09:53:25;9.25;;;9.25;;
20906;SDS011;10613;50.966;5.814;2024-02-28T09:57:33;7.00;;;7.00;;
20906;SDS011;10613;50.966;5.814;2024-02-28T10:01:46;10.75;;;9.75;;
20906;SDS011;10613;50.966;5.814;2024-02-28T10:05:53;7.00;;;7.00;;
20906;SDS011;10613;50.966;5.814;2024-02-28T10:10:01;9.25;;;6.25;;
20906;SDS011;10613;50.966;5.814;2024-02-28T10:14:07;8.00;;;8.00;;
20906;SDS011;10613;50.966;5.814;2024-02-28T10:18:14;6.00;;;6.00;;
20906;SDS011;10613;50.966;5.814;2024-02-28T10:22:21;11.50;;;8.00;;
20906;SDS011;10613;50.966;5.814;2024-02-28T10:26:28;4.00;;;4.00;;
20906;SDS011;10613;50.966;5.814;2024-02-28T10:30:39;7.00;;;7.00;;
20906;SDS011;10613;50.966;5.814;2024-02-28T10:34:46;7.50;;;7.50;;
20906;SDS011;10613;50.966;5.814;2024-02-28T10:38:53;7.50;;;7.00;;
20906;SDS011;10613;50.966;5.814;2024-02-28T10:43:01;7.00;;;5.00;;
20906;SDS011;10613;50.966;5.814;2024-02-28T10:47:09;9.00;;;7.00;;
20906;SDS011;10613;50.966;5.814;2024-02-28T10:51:17;12.00;;;9.00;;
20906;SDS011;10613;50.966;5.814;2024-02-28T10:55:26;10.00;;;10.00;;
20906;SDS011;10613;50.966;5.814;2024-02-28T10:59:36;9.00;;;6.50;;
20906;SDS011;10613;50.966;5.814;2024-02-28T11:03:43;8.25;;;7.00;;
20906;SDS011;10613;50.966;5.814;2024-02-28T11:07:51;6.00;;;6.00;;
20906;SDS011;10613;50.966;5.814;2024-02-28T11:11:59;5.00;;;5.00;;
20906;SDS011;10613;50.966;5.814;2024-02-28T11:16:10;6.00;;;6.00;;
20906;SDS011;10613;50.966;5.814;2024-02-28T11:20:17;5.00;;;5.00;;
20906;SDS011;10613;50.966;5.814;2024-02-28T11:24:25;7.00;;;7.00;;
20906;SDS011;10613;50.966;5.814;2024-02-28T11:28:32;6.25;;;6.00;;
20906;SDS011;10613;50.966;5.814;2024-02-28T11:32:39;6.25;;;6.25;;
20906;SDS011;10613;50.966;5.814;2024-02-28T11:36:47;6.75;;;6.75;;
20906;SDS011;10613;50.966;5.814;2024-02-28T11:40:53;7.50;;;6.25;;
20906;SDS011;10613;50.966;5.814;2024-02-28T11:45:01;7.00;;;6.00;;
20906;SDS011;10613;50.966;5.814;2024-02-28T11:49:15;6.00;;;6.00;;
20906;SDS011;10613;50.966;5.814;2024-02-28T11:53:24;7.50;;;7.00;;
20906;SDS011;10613;50.966;5.814;2024-02-28T11:57:32;5.00;;;5.00;;
20906;SDS011;10613;50.966;5.814;2024-02-28T12:01:41;8.75;;;6.00;;
20906;SDS011;10613;50.966;5.814;2024-02-28T12:05:51;4.25;;;4.25;;
20906;SDS011;10613;50.966;5.814;2024-02-28T12:09:59;6.25;;;6.25;;
20906;SDS011;10613;50.966;5.814;2024-02-28T12:14:06;5.50;;;5.50;;
20906;SDS011;10613;50.966;5.814;2024-02-28T12:18:15;6.00;;;6.00;;
20906;SDS011;10613;50.966;5.814;2024-02-28T12:22:22;4.00;;;4.00;;
20906;SDS011;10613;50.966;5.814;2024-02-28T12:26:29;4.00;;;4.00;;
20906;SDS011;10613;50.966;5.814;2024-02-28T12:30:43;4.00;;;3.50;;
20906;SDS011;10613;50.966;5.814;2024-02-28T12:34:50;9.25;;;6.25;;
20906;SDS011;10613;50.966;5.814;2024-02-28T12:39:04;4.00;;;4.00;;
20906;SDS011;10613;50.966;5.814;2024-02-28T12:43:12;7.00;;;6.00;;
20906;SDS011;10613;50.966;5.814;2024-02-28T12:47:20;3.75;;;2.00;;
20906;SDS011;10613;50.966;5.814;2024-02-28T12:51:37;5.00;;;4.00;;
20906;SDS011;10613;50.966;5.814;2024-02-28T12:55:44;3.75;;;3.75;;
20906;SDS011;10613;50.966;5.814;2024-02-28T12:59:51;4.00;;;4.00;;
20906;SDS011;10613;50.966;5.814;2024-02-28T13:03:58;6.25;;;5.25;;
20906;SDS011;10613;50.966;5.814;2024-02-28T13:08:05;4.00;;;4.00;;
20906;SDS011;10613;50.966;5.814;2024-02-28T13:12:12;6.50;;;4.75;;
20906;SDS011;10613;50.966;5.814;2024-02-28T13:16:19;4.00;;;4.00;;
20906;SDS011;10613;50.966;5.814;2024-02-28T13:20:26;5.00;;;5.00;;
20906;SDS011;10613;50.966;5.814;2024-02-28T13:24:33;4.00;;;4.00;;
20906;SDS011;10613;50.966;5.814;2024-02-28T13:28:43;4.00;;;4.00;;
20906;SDS011;10613;50.966;5.814;2024-02-28T13:32:49;3.50;;;3.00;;
20906;SDS011;10613;50.966;5.814;2024-02-28T13:36:56;4.00;;;4.00;;
20906;SDS011;10613;50.966;5.814;2024-02-28T13:41:03;5.00;;;4.00;;
20906;SDS011;10613;50.966;5.814;2024-02-28T13:45:10;4.00;;;4.00;;
20906;SDS011;10613;50.966;5.814;2024-02-28T13:49:18;2.50;;;2.50;;
20906;SDS011;10613;50.966;5.814;2024-02-28T13:53:25;4.00;;;4.00;;
20906;SDS011;10613;50.966;5.814;2024-02-28T13:57:32;4.00;;;4.00;;
20906;SDS011;10613;50.966;5.814;2024-02-28T14:01:39;4.00;;;4.00;;
20906;SDS011;10613;50.966;5.814;2024-02-28T14:05:46;4.00;;;4.00;;
20906;SDS011;10613;50.966;5.814;2024-02-28T14:09:53;2.00;;;2.00;;
20906;SDS011;10613;50.966;5.814;2024-02-28T14:14:00;4.00;;;4.00;;
20906;SDS011;10613;50.966;5.814;2024-02-28T14:18:07;4.00;;;3.50;;
20906;SDS011;10613;50.966;5.814;2024-02-28T14:22:14;3.00;;;3.00;;
20906;SDS011;10613;50.966;5.814;2024-02-28T14:26:21;3.00;;;3.00;;
20906;SDS011;10613;50.966;5.814;2024-02-28T14:30:30;2.00;;;2.00;;
20906;SDS011;10613;50.966;5.814;2024-02-28T14:34:37;4.00;;;4.00;;
20906;SDS011;10613;50.966;5.814;2024-02-28T14:38:44;3.50;;;2.50;;
20906;SDS011;10613;50.966;5.814;2024-02-28T14:42:51;3.00;;;3.00;;
20906;SDS011;10613;50.966;5.814;2024-02-28T14:46:58;2.00;;;2.00;;
20906;SDS011;10613;50.966;5.814;2024-02-28T14:51:05;2.00;;;2.00;;
20906;SDS011;10613;50.966;5.814;2024-02-28T14:55:13;2.00;;;2.00;;
20906;SDS011;10613;50.966;5.814;2024-02-28T14:59:19;2.00;;;2.00;;
20906;SDS011;10613;50.966;5.814;2024-02-28T15:03:26;2.00;;;2.00;;
20906;SDS011;10613;50.966;5.814;2024-02-28T15:07:33;2.00;;;2.00;;
20906;SDS011;10613;50.966;5.814;2024-02-28T15:11:41;4.00;;;4.00;;
20906;SDS011;10613;50.966;5.814;2024-02-28T15:15:48;3.00;;;3.00;;
20906;SDS011;10613;50.966;5.814;2024-02-28T15:19:55;3.50;;;3.50;;
20906;SDS011;10613;50.966;5.814;2024-02-28T15:24:02;4.00;;;4.00;;
20906;SDS011;10613;50.966;5.814;2024-02-28T15:28:09;4.00;;;4.00;;
20906;SDS011;10613;50.966;5.814;2024-02-28T15:32:16;5.00;;;4.00;;
20906;SDS011;10613;50.966;5.814;2024-02-28T15:36:23;3.00;;;3.00;;
20906;SDS011;10613;50.966;5.814;2024-02-28T15:40:30;4.00;;;1.50;;
20906;SDS011;10613;50.966;5.814;2024-02-28T15:44:37;2.50;;;2.50;;
20906;SDS011;10613;50.966;5.814;2024-02-28T15:48:45;3.50;;;3.50;;
20906;SDS011;10613;50.966;5.814;2024-02-28T15:52:51;3.50;;;3.50;;
20906;SDS011;10613;50.966;5.814;2024-02-28T15:56:58;3.25;;;3.25;;
20906;SDS011;10613;50.966;5.814;2024-02-28T16:01:06;2.00;;;2.00;;
20906;SDS011;10613;50.966;5.814;2024-02-28T16:05:14;2.00;;;2.00;;
20906;SDS011;10613;50.966;5.814;2024-02-28T16:09:21;2.00;;;2.00;;
20906;SDS011;10613;50.966;5.814;2024-02-28T16:13:35;5.00;;;4.00;;
20906;SDS011;10613;50.966;5.814;2024-02-28T16:17:56;2.50;;;2.50;;
20906;SDS011;10613;50.966;5.814;2024-02-28T16:22:03;5.00;;;5.00;;
20906;SDS011;10613;50.966;5.814;2024-02-28T16:26:10;4.25;;;4.25;;
20906;SDS011;10613;50.966;5.814;2024-02-28T16:30:17;5.00;;;5.00;;
20906;SDS011;10613;50.966;5.814;2024-02-28T16:34:26;2.00;;;2.00;;
20906;SDS011;10613;50.966;5.814;2024-02-28T16:38:32;2.00;;;2.00;;
20906;SDS011;10613;50.966;5.814;2024-02-28T16:42:39;4.00;;;4.00;;
20906;SDS011;10613;50.966;5.814;2024-02-28T16:46:46;2.00;;;2.00;;
20906;SDS011;10613;50.966;5.814;2024-02-28T16:50:53;4.50;;;3.00;;
20906;SDS011;10613;50.966;5.814;2024-02-28T16:55:00;4.00;;;4.00;;
20906;SDS011;10613;50.966;5.814;2024-02-28T16:59:07;3.50;;;3.50;;
20906;SDS011;10613;50.966;5.814;2024-02-28T17:03:16;4.00;;;4.00;;
20906;SDS011;10613;50.966;5.814;2024-02-28T17:07:23;2.00;;;2.00;;
20906;SDS011;10613;50.966;5.814;2024-02-28T17:11:30;2.25;;;1.50;;
20906;SDS011;10613;50.966;5.814;2024-02-28T17:15:37;2.00;;;2.00;;
20906;SDS011;10613;50.966;5.814;2024-02-28T17:19:51;2.00;;;2.00;;
20906;SDS011;10613;50.966;5.814;2024-02-28T17:23:58;1.00;;;1.00;;
20906;SDS011;10613;50.966;5.814;2024-02-28T17:28:06;4.00;;;4.00;;
20906;SDS011;10613;50.966;5.814;2024-02-28T17:32:12;3.25;;;3.25;;
20906;SDS011;10613;50.966;5.814;2024-02-28T17:36:19;3.00;;;3.00;;
20906;SDS011;10613;50.966;5.814;2024-02-28T17:40:26;1.25;;;1.25;;
20906;SDS011;10613;50.966;5.814;2024-02-28T17:44:33;4.50;;;4.00;;
20906;SDS011;10613;50.966;5.814;2024-02-28T17:48:40;3.00;;;3.00;;
20906;SDS011;10613;50.966;5.814;2024-02-28T17:52:49;1.75;;;1.75;;
20906;SDS011;10613;50.966;5.814;2024-02-28T17:56:57;4.00;;;4.00;;
20906;SDS011;10613;50.966;5.814;2024-02-28T18:01:03;3.00;;;3.00;;
20906;SDS011;10613;50.966;5.814;2024-02-28T18:05:13;3.00;;;3.00;;
20906;SDS011;10613;50.966;5.814;2024-02-28T18:09:26;2.75;;;2.75;;
20906;SDS011;10613;50.966;5.814;2024-02-28T18:13:33;3.00;;;3.00;;
20906;SDS011;10613;50.966;5.814;2024-02-28T18:17:40;2.50;;;2.50;;
20906;SDS011;10613;50.966;5.814;2024-02-28T18:21:47;1.50;;;1.50;;
20906;SDS011;10613;50.966;5.814;2024-02-28T18:25:54;2.75;;;2.75;;
20906;SDS011;10613;50.966;5.814;2024-02-28T18:30:09;2.00;;;1.00;;
20906;SDS011;10613;50.966;5.814;2024-02-28T18:34:15;3.25;;;3.00;;
20906;SDS011;10613;50.966;5.814;2024-02-28T18:38:23;2.75;;;2.75;;
20906;SDS011;10613;50.966;5.814;2024-02-28T18:42:31;4.00;;;3.00;;
20906;SDS011;10613;50.966;5.814;2024-02-28T18:46:37;3.00;;;3.00;;
20906;SDS011;10613;50.966;5.814;2024-02-28T18:50:44;3.00;;;3.00;;
20906;SDS011;10613;50.966;5.814;2024-02-28T18:54:51;3.00;;;3.00;;
20906;SDS011;10613;50.966;5.814;2024-02-28T18:58:59;4.00;;;4.00;;
20906;SDS011;10613;50.966;5.814;2024-02-28T19:03:05;2.75;;;2.75;;
20906;SDS011;10613;50.966;5.814;2024-02-28T19:07:14;3.50;;;3.00;;
20906;SDS011;10613;50.966;5.814;2024-02-28T19:11:22;3.00;;;3.00;;
20906;SDS011;10613;50.966;5.814;2024-02-28T19:15:29;4.00;;;3.50;;
20906;SDS011;10613;50.966;5.814;2024-02-28T19:19:36;3.00;;;3.00;;
20906;SDS011;10613;50.966;5.814;2024-02-28T19:23:43;2.75;;;2.75;;
20906;SDS011;10613;50.966;5.814;2024-02-28T19:27:57;3.75;;;3.00;;
20906;SDS011;10613;50.966;5.814;2024-02-28T19:32:05;2.00;;;2.00;;
20906;SDS011;10613;50.966;5.814;2024-02-28T19:36:12;1.00;;;1.00;;
20906;SDS011;10613;50.966;5.814;2024-02-28T19:40:19;3.00;;;3.00;;
20906;SDS011;10613;50.966;5.814;2024-02-28T19:44:26;1.75;;;1.75;;
20906;SDS011;10613;50.966;5.814;2024-02-28T19:48:33;2.75;;;2.75;;
20906;SDS011;10613;50.966;5.814;2024-02-28T19:52:41;4.00;;;4.00;;
20906;SDS011;10613;50.966;5.814;2024-02-28T19:56:48;3.00;;;3.00;;
20906;SDS011;10613;50.966;5.814;2024-02-28T20:00:55;3.00;;;3.00;;
20906;SDS011;10613;50.966;5.814;2024-02-28T20:05:02;3.00;;;3.00;;
20906;SDS011;10613;50.966;5.814;2024-02-28T20:09:09;4.00;;;3.00;;
20906;SDS011;10613;50.966;5.814;2024-02-28T20:13:16;2.50;;;2.50;;
20906;SDS011;10613;50.966;5.814;2024-02-28T20:17:24;4.00;;;4.00;;
20906;SDS011;10613;50.966;5.814;2024-02-28T20:21:31;4.00;;;4.00;;
20906;SDS011;10613;50.966;5.814;2024-02-28T20:25:38;4.00;;;4.00;;
20906;SDS011;10613;50.966;5.814;2024-02-28T20:29:45;4.50;;;3.75;;
20906;SDS011;10613;50.966;5.814;2024-02-28T20:33:52;4.50;;;3.00;;
20906;SDS011;10613;50.966;5.814;2024-02-28T20:37:59;4.00;;;3.00;;
20906;SDS011;10613;50.966;5.814;2024-02-28T20:42:06;3.00;;;3.00;;
20906;SDS011;10613;50.966;5.814;2024-02-28T20:46:13;3.50;;;3.50;;
20906;SDS011;10613;50.966;5.814;2024-02-28T20:50:20;7.00;;;7.00;;
20906;SDS011;10613;50.966;5.814;2024-02-28T20:54:27;3.50;;;3.50;;
20906;SDS011;10613;50.966;5.814;2024-02-28T20:58:34;4.00;;;3.25;;
20906;SDS011;10613;50.966;5.814;2024-02-28T21:02:41;4.00;;;4.00;;
20906;SDS011;10613;50.966;5.814;2024-02-28T21:06:48;4.00;;;4.00;;
20906;SDS011;10613;50.966;5.814;2024-02-28T21:10:55;7.50;;;6.00;;
20906;SDS011;10613;50.966;5.814;2024-02-28T21:15:02;3.50;;;3.50;;
20906;SDS011;10613;50.966;5.814;2024-02-28T21:19:13;3.50;;;3.50;;
20906;SDS011;10613;50.966;5.814;2024-02-28T21:23:20;3.00;;;3.00;;
20906;SDS011;10613;50.966;5.814;2024-02-28T21:27:27;5.50;;;5.50;;
20906;SDS011;10613;50.966;5.814;2024-02-28T21:31:34;3.00;;;3.00;;
20906;SDS011;10613;50.966;5.814;2024-02-28T21:35:41;5.50;;;5.50;;
20906;SDS011;10613;50.966;5.814;2024-02-28T21:39:50;4.00;;;4.00;;
20906;SDS011;10613;50.966;5.814;2024-02-28T21:43:57;6.00;;;6.00;;
20906;SDS011;10613;50.966;5.814;2024-02-28T21:48:05;5.00;;;5.00;;
20906;SDS011;10613;50.966;5.814;2024-02-28T21:52:12;4.00;;;4.00;;
20906;SDS011;10613;50.966;5.814;2024-02-28T21:56:19;3.00;;;3.00;;
20906;SDS011;10613;50.966;5.814;2024-02-28T22:00:26;4.00;;;4.00;;
20906;SDS011;10613;50.966;5.814;2024-02-28T22:04:33;4.00;;;4.00;;
20906;SDS011;10613;50.966;5.814;2024-02-28T22:08:40;4.25;;;3.75;;
20906;SDS011;10613;50.966;5.814;2024-02-28T22:12:47;4.50;;;4.50;;
20906;SDS011;10613;50.966;5.814;2024-02-28T22:16:54;4.00;;;4.00;;
20906;SDS011;10613;50.966;5.814;2024-02-28T22:21:01;3.75;;;3.75;;
20906;SDS011;10613;50.966;5.814;2024-02-28T22:25:08;4.00;;;4.00;;
20906;SDS011;10613;50.966;5.814;2024-02-28T22:29:15;3.00;;;3.00;;
20906;SDS011;10613;50.966;5.814;2024-02-28T22:33:25;3.00;;;3.00;;
20906;SDS011;10613;50.966;5.814;2024-02-28T22:37:32;4.00;;;4.00;;
20906;SDS011;10613;50.966;5.814;2024-02-28T22:41:40;4.00;;;4.00;;
20906;SDS011;10613;50.966;5.814;2024-02-28T22:45:47;3.00;;;3.00;;
20906;SDS011;10613;50.966;5.814;2024-02-28T22:49:54;4.00;;;4.00;;
20906;SDS011;10613;50.966;5.814;2024-02-28T22:54:01;4.00;;;4.00;;
20906;SDS011;10613;50.966;5.814;2024-02-28T22:58:08;3.25;;;3.25;;
20906;SDS011;10613;50.966;5.814;2024-02-28T23:02:15;3.00;;;3.00;;
20906;SDS011;10613;50.966;5.814;2024-02-28T23:06:22;4.00;;;4.00;;
20906;SDS011;10613;50.966;5.814;2024-02-28T23:10:29;6.00;;;6.00;;
20906;SDS011;10613;50.966;5.814;2024-02-28T23:14:36;4.00;;;4.00;;
20906;SDS011;10613;50.966;5.814;2024-02-28T23:18:43;3.50;;;3.50;;
20906;SDS011;10613;50.966;5.814;2024-02-28T23:22:53;5.00;;;5.00;;
20906;SDS011;10613;50.966;5.814;2024-02-28T23:27:00;6.50;;;6.50;;
20906;SDS011;10613;50.966;5.814;2024-02-28T23:31:08;7.00;;;7.00;;
20906;SDS011;10613;50.966;5.814;2024-02-28T23:35:15;3.25;;;3.25;;
20906;SDS011;10613;50.966;5.814;2024-02-28T23:39:22;4.00;;;4.00;;
20906;SDS011;10613;50.966;5.814;2024-02-28T23:43:29;4.00;;;3.50;;
20906;SDS011;10613;50.966;5.814;2024-02-28T23:47:36;6.25;;;6.00;;
20906;SDS011;10613;50.966;5.814;2024-02-28T23:51:44;5.50;;;3.50;;
20906;SDS011;10613;50.966;5.814;2024-02-28T23:55:52;5.50;;;5.50;;
